Disclaimer

Please do not use the information listed here in-flight or in-navigation, as they are not provided to us by the airports but are provided by volunteers, so they might be outdated.

Search


Regions


Airport information page

Radio informations:
Tower (TWR) - 118.5 MHz
Ground (GND) - 121.6 MHz
DEP - 121.0 MHz
Automatic Terminal Information Service (ATIS) - 126.85 MHz
Approach (APP) - 119.175 MHz

Airport informations:
Latitude: 32° 55' 01.00" N
Longitude: 129° 54' 49.00" E
Elevation: 15 feet - 5 meters
Operating hours: Remarks
Operating agency: Military-civil joint use airport
Timezone: UTC+9
Fuel: Jet A1+, Jet A1 with icing inhibitor.

JP-5, Keroscene MIL Spec T-5624

80/87 octane gasoline, leaded, MIL-L-5572F (RED)

100/130 MIL Spec, low lead, aviation gasoline (BLUE)

Runway information:
14/32 - 9840 x 200 feet< - >2999 x 61 meters
18/36 - 4350 x 100 feet< - >1326 x 30 meters

Recent METARs:
RJFU 180600Z 35003KT 9999 FEW040 BKN080 BKN120 17/09 Q1017
RJFU 180700Z 33004KT 9999 FEW040 BKN070 BKN120 16/10 Q1017
RJFU 180700Z 33004KT 9999 FEW040 BKN070 BKN120 16/10 Q1017

Airport on the map: